Jepson Prairie Reserve, California Weather observations

Data are for 10 minute period ending at time listed.
 Day   Time   Solar   Ave.   Ave.  Ave.  Vector  Max.   Baro.   Total    
  of    of     Rad.   Air    Rel.  Wind   Wind   Wind  Press.  Precip.   
Year   Day            Temp.  Hum.  Speed  Dir.   Gust                    
2014   (PST)  Kw/m2    F      %     mph   deg.    mph    mb.     in.     
-------------------------------------------------------------------------
 292    9:10   0.43   65.1    84    8.2   205    11.8   1011.5    0.00 
 292    9:20   0.45   66.1    80    6.6   201    10.7   1011.5    0.00 
 292    9:30   0.47   67.4    77    5.7   212     8.6   1011.5    0.00 
 292    9:40   0.50   69.4    71    6.0   188     8.7   1011.5    0.00 
 292    9:50   0.52   70.0    69    4.9   200     7.7   1011.2    0.00 
 292   10:00   0.54   70.8    66    3.6   182     7.0   1011.2    0.00 
 292   10:10   0.55   71.5    64    3.9   163     7.1   1011.2    0.00 
 292   10:20   0.57   72.5    62    4.0   166     7.6   1010.8    0.00 
 292   10:30   0.58   73.2    60    4.3   158     7.7   1010.8    0.00 
 292   10:40   0.60   73.5    58    4.4   157     8.2   1010.8    0.00 
 292   10:50   0.61   74.4    56    5.5   161     9.9   1010.8    0.00 
 292   11:00   0.62   74.9    54    4.3   179     8.8   1010.8    0.00 
 292   11:10   0.63   75.5    52    4.9   162     8.1   1010.5    0.00 
 292   11:20   0.63   76.4    51    4.0   176     9.1   1010.5    0.00 
 292   11:30   0.64   76.6    50    3.5   164    13.3   1010.5    0.00 
 292   11:40   0.64   77.4    48    5.0   184     8.7   1010.2    0.00 
 292   11:50   0.64   77.9    47    5.6   202    11.0   1009.8    0.00 
 292   12:00   0.64   77.6    47    5.5   184     9.5   1009.8    0.00 
 292   12:10   0.64   77.8    47    6.9   217    11.2   1009.8    0.00 
 292   12:20   0.64   77.9    46    7.2   209    12.0   1009.5    0.00 
 292   12:30   0.63   78.3    45    7.0   214    12.0   1009.5    0.00 
 292   12:40   0.63   78.0    46    9.2   211    13.7   1009.1    0.00 
 292   12:50   0.62   78.3    45    7.4   214    12.0   1009.1    0.00 
 292   13:00   0.61   78.6    44    6.7   202    11.2   1008.8    0.00 
 292   13:10   0.60   79.1    43    7.1   196    13.4   1008.8    0.00 
 292   13:20   0.58   79.1    44    7.0   194    12.7   1008.5    0.00 
 292   13:30   0.57   79.2    44    8.3   199    12.4   1008.5    0.00 
 292   13:40   0.55   79.4    44    8.4   202    13.7   1008.5    0.00 
 292   13:50   0.53   79.3    45    9.1   194    13.7   1008.5    0.00 
 292   14:00   0.51   79.6    45    9.7   200    13.7   1008.5    0.00 
 292   14:10   0.50   79.5    45    8.8   197    13.6   1008.1    0.00 
 292   14:20   0.47   79.6    45    7.5   187    13.2   1008.1    0.00 
 292   14:30   0.45   79.6    45    7.9   190    13.3   1008.1    0.00 
 292   14:40   0.42   79.7    45    9.4   202    14.0   1008.1    0.00 
 292   14:50   0.40   79.6    44    9.3   216    16.0   1007.8    0.00 
 292   15:00   0.37   79.5    44   11.4   234    15.7   1007.8    0.00 
 292   15:10   0.34   79.5    44   12.3   238    18.0   1007.8    0.00 
 292   15:20   0.32   79.0    44   11.8   238    15.6   1007.8    0.00 
 292   15:30   0.29   78.7    44   10.9   235    17.3   1007.8    0.00 
 292   15:40   0.26   78.5    45   12.2   229    16.2   1007.8    0.00 
 292   15:50   0.23   78.1    45   11.9   237    16.6   1007.8    0.00 
 292   16:00   0.20   77.7    46   11.7   231    15.3   1007.8    0.00 
 292   16:10   0.17   77.5    47   12.1   231    17.4   1007.5    0.00 
 292   16:20   0.14   76.2    52   14.2   232    17.5   1007.5    0.00 
 292   16:30   0.11   75.5    53   13.1   225    18.0   1007.8    0.00 
 292   16:40   0.09   74.9    55   13.0   223    15.9   1007.8    0.00 
 292   16:50   0.07   74.3    57   12.8   223    16.0   1007.8    0.00 
 292   17:00   0.05   73.6    58   11.8   222    15.0   1007.8    0.00 
 292   17:10   0.03   72.8    60   11.7   218    15.6   1007.8    0.00 
 292   17:20   0.01   71.9    62   13.2   215    16.9   1008.1    0.00 
 292   17:30   0.00   70.8    64   12.6   215    15.1   1008.1    0.00 
 292   17:40   0.00   70.1    65   13.2   208    15.7   1008.1    0.00 
 292   17:50   0.00   69.6    67   14.1   208    17.0   1008.1    0.00 
 292   18:00   0.00   69.2    68   14.3   212    17.0   1008.1    0.00 
 292   18:10   0.00   68.6    70   11.4   209    15.0   1008.5    0.00 
 292   18:20   0.00   67.9    71   11.1   209    13.4   1008.5    0.00 
 292   18:30   0.00   67.5    72   10.0   205    12.3   1008.8    0.00 
 292   18:40   0.00   67.1    73    9.5   204    11.4   1008.8    0.00 
 292   18:50   0.00   66.6    73    9.8   207    12.1   1008.8    0.00 
 292   19:00   0.00   66.6    73   10.8   211    13.7   1008.8    0.00 
 292   19:10   0.00   66.4    73   10.0   217    14.0   1008.8    0.00 
 292   19:20   0.00   66.0    74   13.5   210    18.3   1008.8    0.00 
 292   19:30   0.00   65.5    76   15.0   215    18.4   1008.8    0.00 
 292   19:40   0.00   64.7    78   16.8   220    21.2   1008.8    0.00 
 292   19:50   0.00   64.1    80   17.6   220    20.8   1009.1    0.00 
 292   20:00   0.00   63.4    81   16.3   217    20.5   1009.1    0.00 
 292   20:10   0.00   63.0    82   14.6   216    17.6   1009.5    0.00 
 292   20:20   0.00   63.0    81   14.8   215    19.6   1009.5    0.00 
 292   20:30   0.00   63.0    81   15.7   214    20.3   1009.5    0.00 
 292   20:40   0.00   62.8    81   17.0   210    21.9   1009.5    0.00 
 292   20:50   0.00   62.5    82   16.9   208    21.7   1009.5    0.00 
 292   21:00   0.00   62.2    83   16.6   207    21.0   1009.5    0.00 
 292   21:10   0.00   62.1    84   16.1   204    20.0   1009.8    0.00 
 292   21:20   0.00   62.0    84   15.1   203    18.0   1009.8    0.00 
 292   21:30   0.00   61.8    85   15.0   207    19.2   1009.8    0.00 
 292   21:40   0.00   61.9    84   12.9   211    17.6   1010.2    0.00 
 292   21:50   0.00   61.7    84   10.4   206    13.9   1009.8    0.00 
 292   22:00   0.00   61.6    86    9.9   211    14.0   1010.2    0.00 
 292   22:10   0.00   61.4    86   10.0   215    15.1   1009.8    0.00 
 292   22:20   0.00   61.3    86   15.1   214    24.5   1009.8    0.00 
 292   22:30   0.00   61.3    86   17.9   218    23.6   1009.8    0.00 
 292   22:40   0.00   61.2    86   19.2   216    24.5   1009.8    0.00 
 292   22:50   0.00   61.1    86   19.1   214    23.8   1009.8    0.00 
 292   23:00   0.00   61.0    87   19.5   215    25.9   1009.8    0.00 
 292   23:10   0.00   60.7    87   20.6   216    25.3   1009.8    0.00 
 292   23:20   0.00   60.7    87   20.2   217    25.1   1009.8    0.00 
 292   23:30   0.00   60.7    87   19.7   219    23.5   1009.8    0.00 
 292   23:40   0.00   60.7    87   17.5   223    22.7   1009.8    0.00 
 292   23:50   0.00   60.8    86   15.1   230    21.0   1009.8    0.00 
 293    0:00   0.00   61.0    85   17.4   231    23.6   1009.8    0.00 
 293    0:10   0.00   60.9    85   15.4   228    20.8   1009.8    0.00 
 293    0:20   0.00   61.0    85   20.7   223    25.4   1009.5    0.00 
 293    0:30   0.00   61.3    84   22.2   225    28.9   1009.5    0.00 
 293    0:40   0.00   61.4    84   22.8   225    28.0   1009.8    0.00 
 293    0:50   0.00   61.6    83   22.4   224    27.1   1009.8    0.00 
 293    1:00   0.00   61.8    83   20.5   225    26.2   1010.2    0.00 
 293    1:10   0.00   62.1    82   20.2   224    25.6   1010.2    0.00 
 293    1:20   0.00   62.1    82   20.0   221    25.1   1010.2    0.00 
 293    1:30   0.00   62.1    82   18.1   224    22.9   1010.2    0.00 
 293    1:40   0.00   62.0    82   18.1   224    23.9   1010.2    0.00 
 293    1:50   0.00   61.8    83   18.1   222    22.2   1010.2    0.00 
 293    2:00   0.00   61.7    83   17.2   222    20.5   1010.2    0.00 
 293    2:10   0.00   61.6    82   16.1   219    19.4   1010.2    0.00 
 293    2:20   0.00   61.2    82   13.8   218    16.7   1010.2    0.00 
 293    2:30   0.00   60.6    84   12.2   223    14.7   1010.2    0.00 
 293    2:40   0.00   60.0    85    8.8   222    11.7   1010.2    0.00 
 293    2:50   0.00   59.5    87   10.4   227    15.4   1009.8    0.00 
 293    3:00   0.00   59.5    87   14.2   229    17.0   1009.8    0.00 
 293    3:10   0.00   59.3    87   15.0   230    18.0   1009.8    0.00 
 293    3:20   0.00   59.2    87   11.8   237    15.3   1009.8    0.00 
 293    3:30   0.00   59.1    88   11.8   236    14.5   1009.8    0.00 
 293    3:40   0.00   59.8    87   10.9   234    14.0   1010.2    0.00 
 293    3:50   0.00   60.4    86   10.9   234    13.7   1010.2    0.00 
 293    4:00   0.00   60.8    85   10.7   236    13.2   1010.2    0.00 
 293    4:10   0.00   61.1    84   10.7   238    17.2   1010.2    0.00 
 293    4:20   0.00   60.9    83    8.5   239    11.1   1010.2    0.00 
 293    4:30   0.00   60.6    83    7.5   235    10.4   1010.5    0.00 
 293    4:40   0.00   60.1    84    8.5   227    11.2   1010.5    0.00 
 293    4:50   0.00   60.0    85   10.1   222    14.5   1010.5    0.00 
 293    5:00   0.00   60.5    84   11.9   224    14.6   1010.2    0.00 
 293    5:10   0.00   60.2    84   10.0   221    12.6   1010.5    0.00 
 293    5:20   0.00   59.0    86    9.2   216    11.0   1010.5    0.00 
 293    5:30   0.00   58.8    88    6.2   206     8.8   1010.5    0.00 
 293    5:40   0.00   59.1    89    2.8   155     4.3   1010.5    0.00 
 293    5:50   0.00   58.8    88    3.0   154     4.7   1010.5    0.00 
 293    6:00   0.00   57.5    89    4.0   171     5.0   1010.5    0.00 
 293    6:10   0.00   56.7    91    4.3   195     6.1   1010.5    0.00 
 293    6:20   0.00   58.2    93    5.3   181     9.0   1010.5    0.00 
 293    6:30   0.01   58.9    91    5.9   175     8.1   1010.5    0.00 
 293    6:40   0.02   58.5    91    4.6   165     7.7   1010.5    0.00 
 293    6:50   0.05   58.3    90    3.7   164     6.2   1010.5    0.00 
 293    7:00   0.07   58.9    89    3.3   149     5.6   1010.5    0.00 
 293    7:10   0.10   59.9    87    3.0   161     5.1   1010.8    0.00 
 293    7:20   0.12   61.2    85    7.0   190    10.8   1010.8    0.00 
 293    7:30   0.15   62.6    80    8.5   195    11.8   1011.2    0.00 
 293    7:40   0.18   63.6    77    8.2   189    10.7   1011.5    0.00 
 293    7:50   0.20   64.7    73    9.1   191    12.5   1011.5    0.00 
 293    8:00   0.18   65.2    72   11.2   190    14.8   1011.5    0.00 
 293    8:10   0.28   66.2    70   13.4   193    16.9   1011.5    0.00 
 293    8:20   0.34   66.7    68   14.9   194    18.0   1011.9    0.00 
 293    8:30   0.37   67.6    66   13.0   189    16.2   1011.9    0.00 
 293    8:40   0.42   68.5    64   11.4   191    15.9   1011.9    0.00 
 293    8:50   0.19   67.9    65   11.7   185    16.7   1011.9    0.00 
 293    9:00   0.28   67.7    66   12.9   194    16.7   1011.9    0.00 

Return to Jepson Prairie Reserve graphs page.


Western Regional Climate Center,wrcc@dri.edu